CheckWX is a tool to help pilots better visualize weather data.  It is not intended as a substitute for an official pre-flight weather briefing.

18:08:02 UTC

KMKG METAR
Muskegon County Airport
Muskegon, Michigan, USA
Current

13 mins ago

KMKG 211755Z VRB03KT 10SM FEW040 SCT190 BKN250 31/18 A2997 RMK AO2 SLPNO 6//// T03060183 10306 20217 50011 $
Observed
Jul-21 @ 17:55 UTC
Wind
  • Variable at 3 KTS
Visibility
10 SM
Flight Rules
VFR
Cloud Levels
  • Few at 4,000' AGL
  • Scattered at 19,000' AGL
  • Broken at 25,000' AGL
Temperature
31°C / 88°F
Dewpoint
18°C / 64°F
Heat Index
32°C / 90°F
Humidity
46%
Altimeter
29.97" Hg
Pressure
1014.92 hPa
Previous

1 hour ago

KMKG 211655Z 04005KT 10SM FEW040 BKN250 30/18 A2997 RMK AO2 SLPNO T03000183 $
Observed
Jul-21 @ 16:55 UTC
Wind
  • 040° at 5 KTS
Visibility
10 SM
Flight Rules
VFR
Cloud Levels
  • Few at 4,000' AGL
  • Broken at 25,000' AGL
Temperature
30°C / 86°F
Dewpoint
18°C / 64°F
Heat Index
31°C / 88°F
Humidity
49%
Altimeter
29.97" Hg
Pressure
1014.92 hPa
Previous

2 hours ago

KMKG 211555Z 04007KT 10SM BKN250 30/20 A2997 RMK AO2 SLPNO T03000200 $
Observed
Jul-21 @ 15:55 UTC
Wind
  • 040° at 7 KTS
Visibility
10 SM
Flight Rules
VFR
Cloud Levels
  • Broken at 25,000' AGL
Temperature
30°C / 86°F
Dewpoint
20°C / 68°F
Heat Index
32°C / 89°F
Humidity
55%
Altimeter
29.97" Hg
Pressure
1014.92 hPa